Time;durP1;ratioP1;P1;durP2;ratioP2;P2;SDS_P1;SDS_P2;PMS_P1;PMS_P2;Temp;Humidity;BMP_temperature;BMP_pressure;BME280_temperature;BME280_humidity;BME280_pressure;Samples;Min_cycle;Max_cycle;Signal;HPM_P1;HPM_P2
2021/04/25 00:00:24;;;;;;;6.63;5.33;;;12.00;49.40;;;;;;5025192;28;20191;-89
2021/04/25 00:02:50;;;;;;;7.97;5.43;;;12.10;48.70;;;;;;5022085;28;20197;-89
2021/04/25 00:05:18;;;;;;;7.00;6.00;;;12.20;48.60;;;;;;5006675;28;20220;-88
2021/04/25 00:07:45;;;;;;;6.53;5.20;;;12.30;48.00;;;;;;5024428;28;20604;-88
2021/04/25 00:10:11;;;;;;;6.50;5.90;;;12.30;48.10;;;;;;5026276;28;20185;-88
2021/04/25 00:12:42;;;;;;;6.70;5.67;;;12.40;48.10;;;;;;5026189;28;20209;-88
2021/04/25 00:15:14;;;;;;;5.10;4.60;;;12.50;47.60;;;;;;5026051;28;20205;-89
2021/04/25 00:17:40;;;;;;;5.60;4.97;;;12.50;47.80;;;;;;5026244;28;20697;-88
2021/04/25 00:20:08;;;;;;;6.30;5.23;;;12.50;47.10;;;;;;5026490;28;20215;-88
2021/04/25 00:22:34;;;;;;;6.03;5.37;;;12.40;47.70;;;;;;5025621;28;20187;-88
2021/04/25 00:25:00;;;;;;;6.47;5.33;;;12.20;48.20;;;;;;5027875;28;20213;-89
2021/04/25 00:27:29;;;;;;;6.97;5.40;;;12.30;48.80;;;;;;5029676;28;20209;-89
2021/04/25 00:29:54;;;;;;;6.43;5.17;;;12.40;48.10;;;;;;5029069;28;20657;-88
2021/04/25 00:32:20;;;;;;;6.27;5.27;;;12.00;48.80;;;;;;5029277;28;20243;-88
2021/04/25 00:34:46;;;;;;;7.40;5.50;;;11.90;49.50;;;;;;5029937;28;20182;-89
2021/04/25 00:37:12;;;;;;;9.17;5.30;;;11.90;49.80;;;;;;5029488;28;20213;-88
2021/04/25 00:39:37;;;;;;;6.70;5.67;;;11.80;49.90;;;;;;5029937;28;20188;-89
2021/04/25 00:42:04;;;;;;;7.27;5.07;;;11.50;50.70;;;;;;5028754;28;20185;-88
2021/04/25 00:44:29;;;;;;;5.50;5.00;;;11.50;51.30;;;;;;5028901;28;20193;-89
2021/04/25 00:46:55;;;;;;;11.43;5.20;;;11.60;50.90;;;;;;5029603;28;20268;-88
2021/04/25 00:49:21;;;;;;;6.57;5.87;;;11.60;50.70;;;;;;5029934;28;20659;-88
2021/04/25 00:51:47;;;;;;;7.63;5.40;;;11.70;50.60;;;;;;5029763;28;20265;-88
2021/04/25 00:54:13;;;;;;;7.00;6.27;;;11.60;51.00;;;;;;5029205;28;20537;-90
2021/04/25 00:56:39;;;;;;;7.27;5.37;;;11.40;51.80;;;;;;5030766;28;20185;-88
2021/04/25 00:59:05;;;;;;;8.10;5.60;;;11.30;52.30;;;;;;5040406;28;20200;-89
2021/04/25 01:01:30;;;;;;;8.60;5.40;;;11.30;52.50;;;;;;5039505;28;20182;-88
2021/04/25 01:03:56;;;;;;;6.73;5.77;;;11.20;52.70;;;;;;5033230;28;20189;-89
2021/04/25 01:06:22;;;;;;;9.93;5.70;;;11.00;53.70;;;;;;5029656;28;20528;-89
2021/04/25 01:08:48;;;;;;;6.27;5.60;;;10.90;54.00;;;;;;5028312;28;20197;-89
2021/04/25 01:11:14;;;;;;;7.80;5.43;;;10.90;54.20;;;;;;5029246;28;20217;-89
2021/04/25 01:13:40;;;;;;;6.43;5.57;;;10.90;54.60;;;;;;5028031;28;20244;-88
2021/04/25 01:16:06;;;;;;;6.17;5.50;;;10.90;54.50;;;;;;5028738;28;20186;-88
2021/04/25 01:18:32;;;;;;;9.10;5.90;;;10.70;55.00;;;;;;5029647;28;20182;-89
2021/04/25 01:21:00;;;;;;;7.53;5.20;;;10.60;55.60;;;;;;5029268;28;20189;-89
2021/04/25 01:23:26;;;;;;;6.30;5.37;;;10.50;56.00;;;;;;5029104;28;20197;-89
2021/04/25 01:25:51;;;;;;;8.80;5.53;;;10.60;55.70;;;;;;5029280;28;20181;-89
2021/04/25 01:28:17;;;;;;;7.03;5.83;;;10.60;55.60;;;;;;5027811;28;20213;-88
2021/04/25 01:30:43;;;;;;;6.73;5.37;;;10.80;55.40;;;;;;5028609;28;20181;-88
2021/04/25 01:33:08;;;;;;;10.37;6.37;;;10.60;56.40;;;;;;5031129;28;20220;-88
2021/04/25 01:35:34;;;;;;;6.70;5.40;;;10.80;55.00;;;;;;5029060;28;20188;-88
2021/04/25 01:38:00;;;;;;;6.60;5.73;;;11.00;54.50;;;;;;5027563;28;20233;-88
2021/04/25 01:40:28;;;;;;;7.87;6.20;;;11.20;53.80;;;;;;5029105;28;20272;-89
2021/04/25 01:42:55;;;;;;;6.10;5.50;;;11.40;53.20;;;;;;5028607;28;20174;-90
2021/04/25 01:45:20;;;;;;;6.80;6.10;;;11.40;53.10;;;;;;5029222;28;20185;-89
2021/04/25 01:47:50;;;;;;;7.77;6.03;;;11.50;52.80;;;;;;5027179;28;20244;-88
2021/04/25 01:50:17;;;;;;;5.93;5.43;;;11.50;52.70;;;;;;5027794;28;20194;-88
2021/04/25 01:52:44;;;;;;;8.97;6.00;;;11.50;52.90;;;;;;5028738;28;20213;-88
2021/04/25 01:55:11;;;;;;;6.93;5.27;;;11.70;52.50;;;;;;5028383;28;20174;-87
2021/04/25 01:57:37;;;;;;;7.53;6.13;;;11.60;52.60;;;;;;5028499;28;20300;-89
2021/04/25 02:00:06;;;;;;;7.93;5.63;;;11.60;52.50;;;;;;5028339;28;20188;-88
2021/04/25 02:02:32;;;;;;;8.90;6.47;;;11.70;52.50;;;;;;5028406;28;20174;-88
2021/04/25 02:04:57;;;;;;;7.00;6.27;;;11.80;52.20;;;;;;5028279;28;20186;-89
2021/04/25 02:07:23;;;;;;;6.40;4.77;;;11.80;52.30;;;;;;5010301;28;20209;-89
2021/04/25 02:09:49;;;;;;;5.80;5.13;;;11.90;52.30;;;;;;5026870;28;20186;-89
2021/04/25 02:12:15;;;;;;;10.67;6.80;;;11.80;52.40;;;;;;5028100;28;20225;-89
2021/04/25 02:14:42;;;;;;;7.93;5.37;;;11.90;52.20;;;;;;5027757;28;20181;-89
2021/04/25 02:17:08;;;;;;;7.00;5.90;;;12.00;51.90;;;;;;5022367;28;20701;-89
2021/04/25 02:19:34;;;;;;;7.60;6.37;;;12.00;51.90;;;;;;5021737;28;20186;-89
2021/04/25 02:21:59;;;;;;;8.47;6.33;;;12.00;51.90;;;;;;5023178;28;20185;-89
2021/04/25 02:24:25;;;;;;;7.27;5.97;;;11.70;53.40;;;;;;5023395;28;20196;-88
2021/04/25 02:26:51;;;;;;;9.20;6.67;;;11.50;53.80;;;;;;5023848;28;20210;-88
2021/04/25 02:29:16;;;;;;;8.43;5.90;;;11.50;53.50;;;;;;5023907;28;20206;-88
2021/04/25 02:31:42;;;;;;;7.70;5.70;;;11.60;53.10;;;;;;5029782;28;20235;-88
2021/04/25 02:34:08;;;;;;;8.43;6.87;;;11.60;53.50;;;;;;5034397;28;20189;-88
2021/04/25 02:36:34;;;;;;;6.70;6.10;;;11.40;54.10;;;;;;5036525;28;20226;-88
2021/04/25 02:38:59;;;;;;;6.00;5.30;;;11.10;55.00;;;;;;5030869;28;20189;-89
2021/04/25 02:41:27;;;;;;;6.73;5.80;;;11.20;54.80;;;;;;5023210;28;20177;-88
2021/04/25 02:43:52;;;;;;;5.53;5.03;;;11.30;54.30;;;;;;5022949;28;20260;-89
2021/04/25 02:46:18;;;;;;;8.93;6.67;;;11.40;53.90;;;;;;5022866;28;20554;-89
2021/04/25 02:48:44;;;;;;;7.43;6.03;;;11.30;54.10;;;;;;5022294;28;20619;-89
2021/04/25 02:51:10;;;;;;;5.90;5.33;;;11.10;54.70;;;;;;5021933;28;20213;-90
2021/04/25 02:53:35;;;;;;;7.27;6.23;;;11.10;55.20;;;;;;5022682;28;20610;-89
2021/04/25 02:56:01;;;;;;;8.90;6.40;;;11.00;55.20;;;;;;5022873;28;20174;-89
2021/04/25 02:58:27;;;;;;;7.17;5.90;;;11.00;54.60;;;;;;5022818;28;20243;-89
2021/04/25 03:00:52;;;;;;;11.13;6.53;;;11.00;55.00;;;;;;5021813;28;20186;-89
2021/04/25 03:03:18;;;;;;;6.83;6.00;;;10.90;55.00;;;;;;5022649;28;20193;-89
2021/04/25 03:05:44;;;;;;;9.70;6.53;;;10.90;55.40;;;;;;5021387;28;20211;-89
2021/04/25 03:08:09;;;;;;;8.23;6.57;;;10.90;55.40;;;;;;5022106;28;20746;-89
2021/04/25 03:10:35;;;;;;;8.17;6.10;;;10.60;56.00;;;;;;5022872;28;20185;-89
2021/04/25 03:13:01;;;;;;;8.07;6.30;;;10.60;56.10;;;;;;5021535;28;20213;-89
2021/04/25 03:15:26;;;;;;;7.13;6.27;;;10.60;56.10;;;;;;5022678;28;20649;-89
2021/04/25 03:17:52;;;;;;;11.03;6.03;;;10.60;56.30;;;;;;5022472;28;20213;-89
2021/04/25 03:20:20;;;;;;;8.27;6.40;;;10.50;56.70;;;;;;5022251;28;20204;-88
2021/04/25 03:22:46;;;;;;;8.70;6.33;;;10.50;56.90;;;;;;5021256;28;20189;-88
2021/04/25 03:25:13;;;;;;;11.47;6.20;;;10.50;56.80;;;;;;5022765;28;20177;-90
2021/04/25 03:27:39;;;;;;;9.13;7.07;;;10.40;56.70;;;;;;5020719;28;20244;-88
2021/04/25 03:30:07;;;;;;;7.83;6.20;;;10.40;57.10;;;;;;5021862;28;20197;-89
2021/04/25 03:32:33;;;;;;;10.47;7.17;;;10.50;56.60;;;;;;5022856;28;20201;-89
2021/04/25 03:35:00;;;;;;;7.90;6.20;;;10.50;56.60;;;;;;5019937;28;20610;-89
2021/04/25 03:37:26;;;;;;;9.20;6.57;;;10.40;56.70;;;;;;5021639;28;20209;-89
2021/04/25 03:39:51;;;;;;;8.90;6.80;;;10.50;56.60;;;;;;5022133;28;20185;-89
2021/04/25 03:42:17;;;;;;;6.87;6.17;;;10.40;56.50;;;;;;5020513;28;20189;-89
2021/04/25 03:44:43;;;;;;;8.67;6.17;;;10.20;57.50;;;;;;5023062;28;20185;-89
2021/04/25 03:47:08;;;;;;;8.10;6.10;;;10.20;57.30;;;;;;5024179;28;20206;-89
2021/04/25 03:49:34;;;;;;;8.40;6.70;;;10.30;57.30;;;;;;5024168;28;20186;-88
2021/04/25 03:52:00;;;;;;;6.30;5.70;;;10.30;57.20;;;;;;5023062;28;20213;-89
2021/04/25 03:54:26;;;;;;;9.63;7.10;;;10.50;56.80;;;;;;5023894;28;20209;-89
2021/04/25 03:56:52;;;;;;;11.13;7.27;;;10.40;56.70;;;;;;5024759;28;20197;-89
2021/04/25 03:59:18;;;;;;;7.13;6.43;;;10.30;57.00;;;;;;5023826;28;20181;-88
2021/04/25 04:01:44;;;;;;;7.10;5.93;;;10.20;57.10;;;;;;5029263;28;20188;-89
2021/04/25 04:04:09;;;;;;;7.17;6.33;;;10.30;57.10;;;;;;5029067;28;20190;-89
2021/04/25 04:06:35;;;;;;;8.10;6.50;;;10.40;56.80;;;;;;5026715;28;20224;-89
2021/04/25 04:09:01;;;;;;;7.73;6.33;;;10.40;56.70;;;;;;5028496;28;20277;-88
2021/04/25 04:11:26;;;;;;;6.53;5.43;;;10.30;57.00;;;;;;5010311;28;20293;-89
2021/04/25 04:13:52;;;;;;;8.13;5.93;;;10.50;56.80;;;;;;5026726;28;20178;-89
2021/04/25 04:16:18;;;;;;;6.33;5.10;;;10.60;56.30;;;;;;5026576;28;20787;-89
2021/04/25 04:18:44;;;;;;;6.27;5.67;;;10.60;56.20;;;;;;5025608;28;20170;-89
2021/04/25 04:21:10;;;;;;;6.63;5.97;;;10.60;55.80;;;;;;5027814;28;20205;-89
2021/04/25 04:23:36;;;;;;;7.30;5.90;;;10.70;55.50;;;;;;5027497;28;20182;-88
2021/04/25 04:26:02;;;;;;;6.73;5.63;;;10.70;55.20;;;;;;5026540;28;20194;-88
2021/04/25 04:28:27;;;;;;;7.40;6.13;;;10.70;55.40;;;;;;5028823;28;20268;-89
2021/04/25 04:30:53;;;;;;;7.90;7.10;;;10.70;55.50;;;;;;5027235;28;20189;-89
2021/04/25 04:33:19;;;;;;;9.07;6.43;;;10.70;55.30;;;;;;5026847;28;20186;-89
2021/04/25 04:35:45;;;;;;;8.33;6.37;;;10.70;55.50;;;;;;5036080;28;20181;-88
2021/04/25 04:38:10;;;;;;;7.50;6.53;;;10.60;55.90;;;;;;5039840;28;20259;-89
2021/04/25 04:40:36;;;;;;;13.40;6.93;;;10.60;55.90;;;;;;5036789;28;20181;-89
2021/04/25 04:43:02;;;;;;;8.63;6.73;;;10.60;55.90;;;;;;5025752;28;20181;-90
2021/04/25 04:45:27;;;;;;;9.23;7.10;;;10.40;56.40;;;;;;5028172;28;20244;-90
2021/04/25 04:47:53;;;;;;;7.67;6.87;;;10.40;56.70;;;;;;5028326;28;20209;-89
2021/04/25 04:50:19;;;;;;;8.73;7.83;;;10.30;56.90;;;;;;5027289;28;20197;-89
2021/04/25 04:52:46;;;;;;;9.30;8.30;;;10.10;57.40;;;;;;5025549;28;20229;-89
2021/04/25 04:55:14;;;;;;;11.53;7.30;;;9.80;57.90;;;;;;5027490;28;20181;-89
2021/04/25 04:57:39;;;;;;;10.60;8.07;;;9.70;58.80;;;;;;5026892;28;20220;-89
2021/04/25 05:00:06;;;;;;;7.53;6.73;;;9.60;58.60;;;;;;5026909;28;20211;-90
2021/04/25 05:02:32;;;;;;;9.20;7.63;;;9.50;59.00;;;;;;5042537;28;20185;-89
2021/04/25 05:04:58;;;;;;;11.93;8.07;;;9.50;59.00;;;;;;5031881;28;20186;-89
2021/04/25 05:07:23;;;;;;;9.77;7.47;;;9.40;59.10;;;;;;5026582;28;20213;-89
2021/04/25 05:09:50;;;;;;;8.47;6.60;;;9.30;59.80;;;;;;5030586;28;20207;-88
2021/04/25 05:12:16;;;;;;;8.97;7.97;;;9.40;59.70;;;;;;5012399;28;20240;-89
2021/04/25 05:14:42;;;;;;;11.10;7.63;;;9.40;59.10;;;;;;5006911;28;20542;-90
2021/04/25 05:17:07;;;;;;;10.67;8.23;;;9.30;59.40;;;;;;5010797;28;20194;-89
2021/04/25 05:19:33;;;;;;;8.90;7.17;;;9.20;59.40;;;;;;5006491;28;20178;-88
2021/04/25 05:21:59;;;;;;;9.43;7.73;;;9.30;59.40;;;;;;5005808;28;20194;-88
2021/04/25 05:24:24;;;;;;;9.40;7.10;;;9.10;59.90;;;;;;5006971;28;20612;-88
2021/04/25 05:26:51;;;;;;;9.90;7.20;;;8.90;60.80;;;;;;5030113;28;20208;-88
2021/04/25 05:29:17;;;;;;;12.20;7.97;;;9.10;60.30;;;;;;5017964;28;20220;-89
2021/04/25 05:31:44;;;;;;;10.43;7.33;;;9.00;60.20;;;;;;5029800;28;20567;-89
2021/04/25 05:34:10;;;;;;;12.77;7.47;;;8.90;60.00;;;;;;5024825;28;20181;-89
2021/04/25 05:36:36;;;;;;;10.83;7.63;;;8.70;61.20;;;;;;5025818;28;20707;-89
2021/04/25 05:39:03;;;;;;;8.90;6.93;;;8.50;61.70;;;;;;5026197;28;20188;-88
2021/04/25 05:41:28;;;;;;;11.90;7.60;;;8.50;61.80;;;;;;5035696;28;20217;-89
2021/04/25 05:43:54;;;;;;;11.20;7.70;;;8.50;62.30;;;;;;5033874;28;20208;-89
2021/04/25 05:46:20;;;;;;;10.57;7.73;;;8.50;62.30;;;;;;5025793;28;20268;-89
2021/04/25 05:48:46;;;;;;;12.07;7.07;;;8.50;62.20;;;;;;5026219;28;20186;-90
2021/04/25 05:51:12;;;;;;;10.27;7.30;;;8.50;62.30;;;;;;5025163;28;20216;-89
2021/04/25 05:53:38;;;;;;;9.93;7.97;;;8.50;61.80;;;;;;5025669;28;20567;-90
2021/04/25 05:56:04;;;;;;;11.10;7.53;;;8.60;61.80;;;;;;5026702;28;20174;-89
2021/04/25 05:58:30;;;;;;;11.63;7.70;;;8.70;61.60;;;;;;5024936;28;20201;-90
2021/04/25 06:00:55;;;;;;;10.30;7.70;;;8.60;61.20;;;;;;5026345;28;20181;-89
2021/04/25 06:03:21;;;;;;;10.83;8.03;;;8.60;61.10;;;;;;5027741;28;20170;-89
2021/04/25 06:05:47;;;;;;;9.10;7.50;;;8.60;61.60;;;;;;5027908;28;20195;-89
2021/04/25 06:08:13;;;;;;;10.07;7.37;;;8.70;62.40;;;;;;5025970;28;20204;-89
2021/04/25 06:10:39;;;;;;;10.07;7.60;;;8.80;61.30;;;;;;5024348;28;20206;-90
2021/04/25 06:13:04;;;;;;;13.13;7.83;;;8.90;61.20;;;;;;5024688;28;20209;-90
2021/04/25 06:15:30;;;;;;;10.80;7.23;;;9.10;60.00;;;;;;5023892;28;20208;-89
2021/04/25 06:18:00;;;;;;;10.57;7.40;;;8.90;60.70;;;;;;5023282;28;20198;-89
2021/04/25 06:20:26;;;;;;;10.33;8.07;;;9.10;60.60;;;;;;5027177;28;20173;-90
2021/04/25 06:22:52;;;;;;;10.43;7.50;;;9.20;60.20;;;;;;5024270;28;20189;-89
2021/04/25 06:25:18;;;;;;;17.87;8.30;;;9.30;59.90;;;;;;5024974;28;20686;-89
2021/04/25 06:27:44;;;;;;;11.73;7.80;;;9.40;59.80;;;;;;5039133;28;20219;-90
2021/04/25 06:30:12;;;;;;;10.30;7.60;;;9.40;59.60;;;;;;5037558;28;20212;-90
2021/04/25 06:32:38;;;;;;;10.47;7.87;;;9.60;59.10;;;;;;5041167;28;20209;-90
2021/04/25 06:35:05;;;;;;;11.10;8.03;;;9.80;59.00;;;;;;5045871;28;20268;-90
2021/04/25 06:37:30;;;;;;;14.00;8.13;;;9.90;58.70;;;;;;5046278;28;20213;-90
2021/04/25 06:39:56;;;;;;;11.10;8.00;;;9.90;58.30;;;;;;5026632;28;20253;-89
2021/04/25 06:42:22;;;;;;;11.40;7.83;;;9.60;59.00;;;;;;5022205;28;20549;-90
2021/04/25 06:44:47;;;;;;;11.53;7.80;;;9.60;59.60;;;;;;5025652;28;20602;-89
2021/04/25 06:47:13;;;;;;;8.93;7.20;;;9.80;59.20;;;;;;5008800;28;20209;-89
2021/04/25 06:49:41;;;;;;;10.03;8.10;;;9.90;58.10;;;;;;5025249;28;20545;-90
2021/04/25 06:52:07;;;;;;;8.33;7.50;;;10.10;57.10;;;;;;5033167;28;20219;-90
2021/04/25 06:54:32;;;;;;;10.53;7.60;;;10.20;56.50;;;;;;5036917;28;20209;-90
2021/04/25 06:56:58;;;;;;;7.87;6.87;;;10.10;57.00;;;;;;5032684;28;20193;-89
2021/04/25 06:59:24;;;;;;;11.03;7.47;;;10.10;56.50;;;;;;5044809;28;20216;-89
2021/04/25 07:01:49;;;;;;;8.90;7.57;;;10.10;56.70;;;;;;5027685;28;20189;-89
2021/04/25 07:04:15;;;;;;;12.37;7.57;;;10.20;56.70;;;;;;5028876;28;20200;-89
2021/04/25 07:06:41;;;;;;;11.13;8.07;;;10.40;56.50;;;;;;5046082;28;20205;-89
2021/04/25 07:09:08;;;;;;;9.50;7.77;;;10.40;56.00;;;;;;5046252;28;20231;-88
2021/04/25 07:11:34;;;;;;;11.07;7.90;;;10.50;55.80;;;;;;5045225;28;20642;-88
2021/04/25 07:13:59;;;;;;;9.07;8.17;;;10.50;55.50;;;;;;5045924;28;20177;-88
2021/04/25 07:16:25;;;;;;;8.70;7.60;;;10.50;55.70;;;;;;5045711;28;20193;-87
2021/04/25 07:18:51;;;;;;;10.53;7.87;;;10.50;55.70;;;;;;5047220;28;20203;-89
2021/04/25 07:21:17;;;;;;;10.47;8.50;;;10.60;55.80;;;;;;5046129;28;20248;-89
2021/04/25 07:23:42;;;;;;;9.17;8.00;;;10.70;55.60;;;;;;5049972;28;20173;-88
2021/04/25 07:26:09;;;;;;;11.47;7.77;;;10.90;55.50;;;;;;5056390;28;20173;-87
2021/04/25 07:28:37;;;;;;;9.03;7.87;;;11.00;54.30;;;;;;5057166;28;20208;-88
2021/04/25 07:31:03;;;;;;;8.57;6.97;;;11.20;54.10;;;;;;5051407;28;20181;-89
2021/04/25 07:33:30;;;;;;;8.80;7.80;;;11.20;53.70;;;;;;5045892;28;20211;-89
2021/04/25 07:35:56;;;;;;;9.47;8.57;;;11.10;53.70;;;;;;5044435;28;20204;-88
2021/04/25 07:38:22;;;;;;;10.17;7.83;;;11.20;54.20;;;;;;5042929;28;20216;-88
2021/04/25 07:40:48;;;;;;;9.50;7.67;;;11.20;53.80;;;;;;5007748;28;20190;-88
2021/04/25 07:43:14;;;;;;;8.50;7.60;;;11.20;54.10;;;;;;5025564;28;20186;-88
2021/04/25 07:45:40;;;;;;;9.87;7.43;;;11.30;53.90;;;;;;5025414;28;20197;-89
2021/04/25 07:48:06;;;;;;;10.00;7.53;;;11.30;53.10;;;;;;5025097;28;20217;-89
2021/04/25 07:50:32;;;;;;;9.00;7.87;;;11.30;53.50;;;;;;5025049;28;20284;-88
2021/04/25 07:53:00;;;;;;;10.90;8.57;;;11.20;54.00;;;;;;5024763;28;20209;-89
2021/04/25 07:55:26;;;;;;;8.93;7.77;;;11.00;54.60;;;;;;5023672;28;20181;-88
2021/04/25 07:57:52;;;;;;;10.57;8.17;;;11.30;54.10;;;;;;5024929;28;20276;-88
2021/04/25 08:00:18;;;;;;;10.73;8.73;;;11.30;53.50;;;;;;5025473;28;20223;-89
2021/04/25 08:02:44;;;;;;;8.67;7.77;;;11.40;53.70;;;;;;5020284;28;20197;-88
2021/04/25 08:05:10;;;;;;;7.97;7.17;;;11.60;53.70;;;;;;5018030;28;20201;-88
2021/04/25 08:07:36;;;;;;;9.20;7.70;;;11.80;52.90;;;;;;5007355;28;20353;-88
2021/04/25 08:10:04;;;;;;;9.50;7.47;;;12.00;52.20;;;;;;5031278;28;20194;-88
2021/04/25 08:12:30;;;;;;;8.87;7.97;;;12.20;51.90;;;;;;5032066;28;20205;-88
2021/04/25 08:14:56;;;;;;;11.53;8.40;;;12.20;51.20;;;;;;5025313;28;20249;-89
2021/04/25 08:17:22;;;;;;;10.10;8.97;;;12.30;50.40;;;;;;5023484;28;20272;-88
2021/04/25 08:19:48;;;;;;;13.23;9.03;;;12.50;50.20;;;;;;5023773;28;20185;-89
2021/04/25 08:22:13;;;;;;;10.77;8.43;;;12.70;49.20;;;;;;5022024;28;20185;-88
2021/04/25 08:24:39;;;;;;;10.33;8.60;;;12.80;48.70;;;;;;5022463;28;20194;-88
2021/04/25 08:27:05;;;;;;;10.33;8.23;;;12.70;49.00;;;;;;5023287;28;20213;-88
2021/04/25 08:29:32;;;;;;;9.03;8.13;;;12.70;49.00;;;;;;5022599;28;20199;-88
2021/04/25 08:31:57;;;;;;;9.90;8.90;;;12.80;48.80;;;;;;5023380;28;20241;-88
2021/04/25 08:34:24;;;;;;;11.17;8.40;;;12.70;48.60;;;;;;5006099;28;20186;-88
2021/04/25 08:36:50;;;;;;;10.90;8.50;;;13.00;48.80;;;;;;5023609;28;20217;-88
2021/04/25 08:39:16;;;;;;;9.03;8.13;;;13.00;49.10;;;;;;5022420;28;20200;-88
2021/04/25 08:41:41;;;;;;;9.03;8.13;;;13.20;48.10;;;;;;5022408;28;20190;-88
2021/04/25 08:44:08;;;;;;;9.77;8.40;;;13.10;48.40;;;;;;5021265;28;20186;-88
2021/04/25 08:46:34;;;;;;;13.87;8.97;;;12.90;48.60;;;;;;5030210;28;20627;-89
2021/04/25 08:49:01;;;;;;;9.47;8.10;;;13.20;48.50;;;;;;5034188;28;20196;-89
2021/04/25 08:51:27;;;;;;;15.50;8.80;;;13.40;47.50;;;;;;5036610;28;20218;-89
2021/04/25 08:53:53;;;;;;;10.87;8.50;;;13.40;47.20;;;;;;5022630;28;20518;-89
2021/04/25 08:56:20;;;;;;;10.13;8.80;;;13.50;47.80;;;;;;5025337;28;20182;-88
2021/04/25 08:58:47;;;;;;;11.23;8.20;;;13.70;46.90;;;;;;5023380;28;20191;-89
2021/04/25 09:01:14;;;;;;;8.57;7.70;;;13.90;46.00;;;;;;5022443;28;20190;-89
2021/04/25 09:03:40;;;;;;;9.40;8.40;;;13.80;46.40;;;;;;5023013;28;20644;-89
2021/04/25 09:06:07;;;;;;;11.77;8.23;;;14.10;45.90;;;;;;5022373;28;20187;-88
2021/04/25 09:08:56;;;;;;;9.27;8.33;;;14.20;46.00;;;;;;5022014;28;20199;-89
2021/04/25 09:11:40;;;;;;;9.67;8.10;;;14.50;44.60;;;;;;5023345;28;20208;-89
2021/04/25 09:14:22;;;;;;;9.97;8.07;;;14.70;44.30;;;;;;5023188;28;20179;-89
2021/04/25 09:16:54;;;;;;;11.07;8.60;;;15.00;43.80;;;;;;5022210;28;20613;-89
2021/04/25 09:19:21;;;;;;;14.60;8.43;;;14.80;43.30;;;;;;5022777;28;20242;-88
2021/04/25 09:22:01;;;;;;;10.70;8.03;;;14.40;44.30;;;;;;5025602;28;20250;-88
2021/04/25 09:24:33;;;;;;;11.00;8.13;;;14.30;45.40;;;;;;5011880;28;20224;-88
2021/04/25 09:27:00;;;;;;;8.80;7.90;;;14.50;44.70;;;;;;5036749;28;20217;-88
2021/04/25 09:29:46;;;;;;;11.40;8.53;;;14.80;43.50;;;;;;5043184;28;20620;-88
2021/04/25 09:32:23;;;;;;;9.73;8.73;;;14.90;43.20;;;;;;5043831;28;20306;-88
2021/04/25 09:34:49;;;;;;;11.47;8.40;;;15.20;42.40;;;;;;5029820;28;20184;-88
2021/04/25 09:37:19;;;;;;;11.10;8.17;;;15.00;42.30;;;;;;5024635;28;20227;-88
2021/04/25 09:40:08;;;;;;;9.27;8.03;;;15.00;42.90;;;;;;5024674;28;20177;-87
2021/04/25 09:43:03;;;;;;;8.33;7.57;;;15.40;42.10;;;;;;5023638;28;20667;-88
2021/04/25 09:45:44;;;;;;;8.87;7.47;;;15.90;40.30;;;;;;5023849;28;20241;-89
2021/04/25 09:48:18;;;;;;;9.60;8.60;;;15.90;40.50;;;;;;5025119;28;20208;-87
2021/04/25 09:50:44;;;;;;;11.30;8.13;;;15.80;39.50;;;;;;5034409;28;20287;-89
2021/04/25 09:53:18;;;;;;;7.83;6.63;;;15.50;40.40;;;;;;5025466;28;20631;-88
2021/04/25 09:55:43;;;;;;;9.00;6.90;;;15.70;37.90;;;;;;5031944;28;20189;-87
2021/04/25 09:58:11;;;;;;;10.00;8.90;;;15.80;38.80;;;;;;5033013;28;20244;-87
2021/04/25 10:00:43;;;;;;;8.57;7.37;;;16.00;39.00;;;;;;5030322;28;20216;-89
2021/04/25 10:03:10;;;;;;;8.03;6.70;;;16.20;38.60;;;;;;5026405;28;20194;-89
2021/04/25 10:05:55;;;;;;;8.03;7.23;;;16.60;38.50;;;;;;5037881;28;20199;-88
2021/04/25 10:08:35;;;;;;;8.50;6.93;;;16.70;36.70;;;;;;5017541;22;20234;-84
2021/04/25 10:11:02;;;;;;;8.17;6.93;;;17.00;36.00;;;;;;4971024;28;20188;-84
2021/04/25 10:13:33;;;;;;;8.63;6.30;;;16.90;36.90;;;;;;4978116;28;20227;-84
2021/04/25 10:15:59;;;;;;;8.10;7.03;;;17.20;35.20;;;;;;4985636;28;20195;-83
2021/04/25 10:18:26;;;;;;;10.33;7.43;;;17.10;36.50;;;;;;4987495;28;20213;-84
2021/04/25 10:20:56;;;;;;;9.57;7.23;;;17.30;36.30;;;;;;4977023;28;20195;-83
2021/04/25 10:23:23;;;;;;;8.17;7.27;;;17.50;35.60;;;;;;4983583;28;20248;-83
2021/04/25 10:25:50;;;;;;;8.80;7.87;;;17.80;35.80;;;;;;4979583;28;20188;-82
2021/04/25 10:28:54;;;;;;;8.53;7.53;;;18.00;35.40;;;;;;4977212;28;20218;-82
2021/04/25 10:31:31;;;;;;;8.60;7.73;;;17.90;36.60;;;;;;4985860;28;20222;-82
2021/04/25 10:34:01;;;;;;;9.60;7.23;;;17.90;36.10;;;;;;5018867;28;20204;-83
2021/04/25 10:36:47;;;;;;;8.23;7.17;;;17.70;35.70;;;;;;4981306;28;20187;-83
2021/04/25 10:39:51;;;;;;;8.67;7.10;;;18.00;33.90;;;;;;4981143;28;20215;-81
2021/04/25 10:42:21;;;;;;;10.20;7.00;;;18.20;33.40;;;;;;4993362;28;21462;-82
2021/04/25 10:44:59;;;;;;;9.53;7.13;;;18.60;33.20;;;;;;4989599;28;20651;-84
2021/04/25 10:47:26;;;;;;;7.20;6.40;;;19.00;32.40;;;;;;4979767;28;20194;-84
2021/04/25 10:49:54;;;;;;;8.27;7.23;;;18.90;31.70;;;;;;4986897;28;20827;-84
2021/04/25 10:52:27;;;;;;;8.00;7.10;;;18.80;32.50;;;;;;4987978;28;20203;-83
2021/04/25 10:55:12;;;;;;;9.93;8.17;;;18.90;32.60;;;;;;4981837;28;20269;-83
2021/04/25 10:57:54;;;;;;;9.70;7.43;;;18.70;33.70;;;;;;4986362;28;20216;-84
2021/04/25 11:03:23;;;;;;;8.60;7.70;;;19.00;34.10;;;;;;4989870;28;20187;-84
2021/04/25 11:05:51;;;;;;;8.83;6.80;;;19.20;32.60;;;;;;4985315;28;20701;-83
2021/04/25 11:08:20;;;;;;;7.03;6.00;;;19.60;31.30;;;;;;4985486;28;20735;-83
2021/04/25 11:10:51;;;;;;;7.13;6.00;;;19.70;30.00;;;;;;4987213;28;20195;-84
2021/04/25 11:13:47;;;;;;;9.90;7.33;;;20.30;29.50;;;;;;4984544;28;20574;-84
2021/04/25 11:16:16;;;;;;;8.52;7.07;;;20.10;30.40;;;;;;4983242;28;20204;-85
2021/04/25 11:19:06;;;;;;;7.40;6.53;;;20.00;30.20;;;;;;4983063;28;20628;-83
2021/04/25 11:21:40;;;;;;;9.55;7.22;;;20.10;31.00;;;;;;4982124;28;20186;-84
2021/04/25 11:24:09;;;;;;;9.93;8.00;;;20.30;30.60;;;;;;4978158;28;20192;-83
2021/04/25 11:26:38;;;;;;;7.13;6.40;;;20.30;30.30;;;;;;4984527;28;20202;-84
2021/04/25 11:29:14;;;;;;;8.83;6.67;;;20.20;29.30;;;;;;4980082;28;20204;-83
2021/04/25 11:31:43;;;;;;;6.72;6.07;;;20.30;30.20;;;;;;4981134;28;20240;-83
2021/04/25 11:37:17;;;;;;;9.30;7.83;;;20.20;29.30;;;;;;4983550;28;20270;-84
2021/04/25 11:39:54;;;;;;;6.87;5.90;;;19.90;30.00;;;;;;4985341;28;20215;-84
2021/04/25 11:42:23;;;;;;;6.43;5.40;;;20.20;28.40;;;;;;4979952;28;20201;-84
2021/04/25 11:44:49;;;;;;;7.20;5.22;;;20.60;27.80;;;;;;4984836;28;20189;-84
2021/04/25 11:47:17;;;;;;;7.72;6.20;;;20.70;27.50;;;;;;4979262;28;20288;-84
2021/04/25 11:49:45;;;;;;;7.82;6.78;;;21.30;28.30;;;;;;4984186;28;20202;-83
2021/04/25 11:52:21;;;;;;;10.95;6.80;;;20.90;28.40;;;;;;4989593;28;20213;-82
2021/04/25 11:55:07;;;;;;;10.45;6.80;;;20.50;29.40;;;;;;4975483;28;20217;-84
2021/04/25 11:57:38;;;;;;;11.88;7.40;;;20.60;29.20;;;;;;4977430;28;20210;-82
2021/04/25 12:00:23;;;;;;;9.75;7.20;;;21.00;29.50;;;;;;4981894;28;20187;-84
2021/04/25 12:02:58;;;;;;;9.13;6.90;;;21.00;29.10;;;;;;4986643;28;20201;-84
2021/04/25 12:05:28;;;;;;;7.55;6.65;;;20.80;29.30;;;;;;4980810;28;20750;-84
2021/04/25 12:08:07;;;;;;;8.75;6.53;;;21.40;29.00;;;;;;4988143;28;20472;-84
2021/04/25 12:10:36;;;;;;;7.00;5.80;;;21.20;28.40;;;;;;4986921;28;20191;-83
2021/04/25 12:13:19;;;;;;;6.88;6.28;;;21.20;29.10;;;;;;4985060;28;20213;-84
2021/04/25 12:15:54;;;;;;;8.60;6.43;;;21.20;28.10;;;;;;4999126;28;20200;-85
2021/04/25 12:18:37;;;;;;;7.63;6.18;;;21.10;28.60;;;;;;4986712;28;20221;-84
2021/04/25 12:21:06;;;;;;;7.43;6.57;;;21.20;28.60;;;;;;4981737;28;20203;-84
2021/04/25 12:23:36;;;;;;;7.22;6.15;;;21.40;28.20;;;;;;4986464;28;20187;-85
2021/04/25 12:26:14;;;;;;;6.78;6.03;;;21.40;28.50;;;;;;4993364;28;20189;-85
2021/04/25 12:28:47;;;;;;;6.53;5.80;;;21.40;28.30;;;;;;4983933;28;20720;-84
2021/04/25 12:31:15;;;;;;;8.25;6.95;;;21.50;28.20;;;;;;4988231;28;20187;-84
2021/04/25 12:33:51;;;;;;;8.18;6.75;;;21.50;28.40;;;;;;5014565;28;20192;-84
2021/04/25 12:36:18;;;;;;;6.95;6.22;;;21.90;27.90;;;;;;4990118;28;20185;-84
2021/04/25 12:39:05;;;;;;;7.18;6.22;;;22.40;27.50;;;;;;4992334;28;20223;-84
2021/04/25 12:41:49;;;;;;;8.02;6.20;;;22.90;27.00;;;;;;4990833;28;20259;-84
2021/04/25 12:44:17;;;;;;;7.70;5.80;;;22.90;26.30;;;;;;4990646;28;20211;-83
2021/04/25 12:46:58;;;;;;;8.18;7.05;;;23.00;26.70;;;;;;4983932;28;20221;-84
2021/04/25 12:49:37;;;;;;;6.88;6.30;;;22.50;27.00;;;;;;4999449;28;20241;-83
2021/04/25 12:52:04;;;;;;;7.57;6.68;;;22.40;27.40;;;;;;4988088;28;20270;-84
2021/04/25 12:54:38;;;;;;;9.20;5.72;;;22.40;26.90;;;;;;5006389;28;20341;-84
2021/04/25 12:57:04;;;;;;;7.50;6.15;;;22.70;26.70;;;;;;4981560;28;20256;-84